sensor_id;sensor_type;location;lat;lon;timestamp;temperature;humidity
20102;DHT22;10210;52.284;9.892;2022-11-18T00:02:12;8.20;99.90
20102;DHT22;10210;52.284;9.892;2022-11-18T00:04:38;8.20;99.90
20102;DHT22;10210;52.284;9.892;2022-11-18T00:07:03;8.20;99.90
20102;DHT22;10210;52.284;9.892;2022-11-18T00:09:29;8.20;99.90
20102;DHT22;10210;52.284;9.892;2022-11-18T00:11:54;8.20;99.90
20102;DHT22;10210;52.284;9.892;2022-11-18T00:14:39;8.20;99.90
20102;DHT22;10210;52.284;9.892;2022-11-18T00:17:05;8.20;99.90
20102;DHT22;10210;52.284;9.892;2022-11-18T00:19:32;8.20;99.90
20102;DHT22;10210;52.284;9.892;2022-11-18T00:22:00;8.10;99.90
20102;DHT22;10210;52.284;9.892;2022-11-18T00:24:26;8.10;99.90
20102;DHT22;10210;52.284;9.892;2022-11-18T00:26:53;8.10;99.90
20102;DHT22;10210;52.284;9.892;2022-11-18T00:29:20;8.10;99.90
20102;DHT22;10210;52.284;9.892;2022-11-18T00:31:47;8.10;99.90
20102;DHT22;10210;52.284;9.892;2022-11-18T00:34:15;8.10;99.90
20102;DHT22;10210;52.284;9.892;2022-11-18T00:36:43;8.10;99.90
20102;DHT22;10210;52.284;9.892;2022-11-18T00:39:10;8.00;99.90
20102;DHT22;10210;52.284;9.892;2022-11-18T00:41:38;8.00;99.90
20102;DHT22;10210;52.284;9.892;2022-11-18T00:44:22;8.00;99.90
20102;DHT22;10210;52.284;9.892;2022-11-18T00:46:48;8.00;99.90
20102;DHT22;10210;52.284;9.892;2022-11-18T00:49:14;8.00;99.90
20102;DHT22;10210;52.284;9.892;2022-11-18T00:51:40;8.00;99.90
20102;DHT22;10210;52.284;9.892;2022-11-18T00:54:05;8.00;99.90
20102;DHT22;10210;52.284;9.892;2022-11-18T00:56:31;8.00;99.90
20102;DHT22;10210;52.284;9.892;2022-11-18T00:58:57;8.00;99.90
20102;DHT22;10210;52.284;9.892;2022-11-18T01:01:23;8.00;99.90
20102;DHT22;10210;52.284;9.892;2022-11-18T01:03:49;8.00;99.90
20102;DHT22;10210;52.284;9.892;2022-11-18T01:06:15;8.00;99.90
20102;DHT22;10210;52.284;9.892;2022-11-18T01:08:41;8.00;99.90
20102;DHT22;10210;52.284;9.892;2022-11-18T01:11:06;8.00;99.90
20102;DHT22;10210;52.284;9.892;2022-11-18T01:13:52;8.00;99.90
20102;DHT22;10210;52.284;9.892;2022-11-18T01:16:20;8.00;99.90
20102;DHT22;10210;52.284;9.892;2022-11-18T01:18:47;8.00;99.90
20102;DHT22;10210;52.284;9.892;2022-11-18T01:21:13;8.00;99.90
20102;DHT22;10210;52.284;9.892;2022-11-18T01:23:39;8.00;99.90
20102;DHT22;10210;52.284;9.892;2022-11-18T01:26:07;8.00;99.90
20102;DHT22;10210;52.284;9.892;2022-11-18T01:28:34;8.00;99.90
20102;DHT22;10210;52.284;9.892;2022-11-18T01:31:04;8.00;99.90
20102;DHT22;10210;52.284;9.892;2022-11-18T01:33:33;8.00;99.90
20102;DHT22;10210;52.284;9.892;2022-11-18T01:35:59;8.00;99.90
20102;DHT22;10210;52.284;9.892;2022-11-18T01:38:25;8.00;99.90
20102;DHT22;10210;52.284;9.892;2022-11-18T01:40:53;8.00;99.90
20102;DHT22;10210;52.284;9.892;2022-11-18T01:43:21;8.10;99.90
20102;DHT22;10210;52.284;9.892;2022-11-18T01:45:51;8.10;99.90
20102;DHT22;10210;52.284;9.892;2022-11-18T01:48:28;8.10;99.90
20102;DHT22;10210;52.284;9.892;2022-11-18T01:51:01;8.10;99.90
20102;DHT22;10210;52.284;9.892;2022-11-18T01:53:34;8.10;99.90
20102;DHT22;10210;52.284;9.892;2022-11-18T01:56:07;8.10;99.90
20102;DHT22;10210;52.284;9.892;2022-11-18T01:58:45;8.10;99.90
20102;DHT22;10210;52.284;9.892;2022-11-18T02:01:16;8.10;99.90
20102;DHT22;10210;52.284;9.892;2022-11-18T02:03:44;8.10;99.90
20102;DHT22;10210;52.284;9.892;2022-11-18T02:06:11;8.10;99.90
20102;DHT22;10210;52.284;9.892;2022-11-18T02:08:38;8.00;99.90
20102;DHT22;10210;52.284;9.892;2022-11-18T02:11:09;8.00;99.90
20102;DHT22;10210;52.284;9.892;2022-11-18T02:13:57;8.00;99.90
20102;DHT22;10210;52.284;9.892;2022-11-18T02:16:31;7.90;99.90
20102;DHT22;10210;52.284;9.892;2022-11-18T02:25:15;7.90;99.90
20102;DHT22;10210;52.284;9.892;2022-11-18T02:30:24;7.90;99.90
20102;DHT22;10210;52.284;9.892;2022-11-18T02:32:56;7.90;99.90
20102;DHT22;10210;52.284;9.892;2022-11-18T02:35:37;7.80;99.90
20102;DHT22;10210;52.284;9.892;2022-11-18T02:38:18;7.80;99.90
20102;DHT22;10210;52.284;9.892;2022-11-18T02:40:48;7.80;99.90
20102;DHT22;10210;52.284;9.892;2022-11-18T02:43:23;7.80;99.90
20102;DHT22;10210;52.284;9.892;2022-11-18T02:46:05;7.80;99.90
20102;DHT22;10210;52.284;9.892;2022-11-18T02:48:38;7.80;99.90
20102;DHT22;10210;52.284;9.892;2022-11-18T02:51:10;7.80;99.90
20102;DHT22;10210;52.284;9.892;2022-11-18T02:53:41;7.80;99.90
20102;DHT22;10210;52.284;9.892;2022-11-18T02:56:09;7.80;99.90
20102;DHT22;10210;52.284;9.892;2022-11-18T02:58:35;7.80;99.90
20102;DHT22;10210;52.284;9.892;2022-11-18T03:01:00;7.80;99.90
20102;DHT22;10210;52.284;9.892;2022-11-18T03:03:29;7.70;99.90
20102;DHT22;10210;52.284;9.892;2022-11-18T03:06:18;7.70;99.90
20102;DHT22;10210;52.284;9.892;2022-11-18T03:11:36;7.70;99.90
20102;DHT22;10210;52.284;9.892;2022-11-18T03:17:01;7.70;99.90
20102;DHT22;10210;52.284;9.892;2022-11-18T03:19:53;7.70;99.90
20102;DHT22;10210;52.284;9.892;2022-11-18T03:25:39;7.70;99.90
20102;DHT22;10210;52.284;9.892;2022-11-18T03:28:31;7.80;99.90
20102;DHT22;10210;52.284;9.892;2022-11-18T03:31:19;7.70;99.90
20102;DHT22;10210;52.284;9.892;2022-11-18T03:33:56;7.80;99.90
20102;DHT22;10210;52.284;9.892;2022-11-18T03:36:28;7.80;99.90
20102;DHT22;10210;52.284;9.892;2022-11-18T03:39:00;7.80;99.90
20102;DHT22;10210;52.284;9.892;2022-11-18T03:41:33;7.90;99.90
20102;DHT22;10210;52.284;9.892;2022-11-18T03:44:10;7.90;99.90
20102;DHT22;10210;52.284;9.892;2022-11-18T03:46:44;7.90;99.90
20102;DHT22;10210;52.284;9.892;2022-11-18T03:49:22;7.90;99.90
20102;DHT22;10210;52.284;9.892;2022-11-18T03:51:59;7.90;99.90
20102;DHT22;10210;52.284;9.892;2022-11-18T03:54:33;7.90;99.90
20102;DHT22;10210;52.284;9.892;2022-11-18T03:57:29;7.80;99.90
20102;DHT22;10210;52.284;9.892;2022-11-18T04:00:11;7.80;99.90
20102;DHT22;10210;52.284;9.892;2022-11-18T04:02:39;7.90;99.90
20102;DHT22;10210;52.284;9.892;2022-11-18T04:05:08;7.90;99.90
20102;DHT22;10210;52.284;9.892;2022-11-18T04:07:55;7.90;99.90
20102;DHT22;10210;52.284;9.892;2022-11-18T04:13:29;7.80;99.90
20102;DHT22;10210;52.284;9.892;2022-11-18T04:15:57;7.80;99.90
20102;DHT22;10210;52.284;9.892;2022-11-18T04:18:22;7.80;99.90
20102;DHT22;10210;52.284;9.892;2022-11-18T04:20:48;7.80;99.90
20102;DHT22;10210;52.284;9.892;2022-11-18T04:23:14;7.80;99.90
20102;DHT22;10210;52.284;9.892;2022-11-18T04:25:39;7.80;99.90
20102;DHT22;10210;52.284;9.892;2022-11-18T04:28:05;7.80;99.90
20102;DHT22;10210;52.284;9.892;2022-11-18T04:30:31;7.70;99.90
20102;DHT22;10210;52.284;9.892;2022-11-18T04:32:57;7.70;99.90
20102;DHT22;10210;52.284;9.892;2022-11-18T04:35:24;7.80;99.90
20102;DHT22;10210;52.284;9.892;2022-11-18T04:37:50;7.70;99.90
20102;DHT22;10210;52.284;9.892;2022-11-18T04:40:16;7.70;99.90
20102;DHT22;10210;52.284;9.892;2022-11-18T04:42:41;7.70;99.90
20102;DHT22;10210;52.284;9.892;2022-11-18T04:45:08;7.70;99.90
20102;DHT22;10210;52.284;9.892;2022-11-18T04:47:34;7.80;99.90
20102;DHT22;10210;52.284;9.892;2022-11-18T04:50:01;7.80;99.90
20102;DHT22;10210;52.284;9.892;2022-11-18T04:52:27;7.70;99.90
20102;DHT22;10210;52.284;9.892;2022-11-18T04:54:53;7.70;99.90
20102;DHT22;10210;52.284;9.892;2022-11-18T04:57:19;7.80;99.90
20102;DHT22;10210;52.284;9.892;2022-11-18T04:59:45;7.80;99.90
20102;DHT22;10210;52.284;9.892;2022-11-18T05:02:12;7.80;99.90
20102;DHT22;10210;52.284;9.892;2022-11-18T05:04:38;7.70;99.90
20102;DHT22;10210;52.284;9.892;2022-11-18T05:07:04;7.70;99.90
20102;DHT22;10210;52.284;9.892;2022-11-18T05:09:32;7.70;99.90
20102;DHT22;10210;52.284;9.892;2022-11-18T05:11:59;7.70;99.90
20102;DHT22;10210;52.284;9.892;2022-11-18T05:14:44;7.70;99.90
20102;DHT22;10210;52.284;9.892;2022-11-18T05:17:10;7.70;99.90
20102;DHT22;10210;52.284;9.892;2022-11-18T05:19:37;7.70;99.90
20102;DHT22;10210;52.284;9.892;2022-11-18T05:22:06;7.70;99.90
20102;DHT22;10210;52.284;9.892;2022-11-18T05:24:32;7.70;99.90
20102;DHT22;10210;52.284;9.892;2022-11-18T05:26:57;7.70;99.90
20102;DHT22;10210;52.284;9.892;2022-11-18T05:29:23;7.60;99.90
20102;DHT22;10210;52.284;9.892;2022-11-18T05:31:49;7.60;99.90
20102;DHT22;10210;52.284;9.892;2022-11-18T05:34:16;7.60;99.90
20102;DHT22;10210;52.284;9.892;2022-11-18T05:36:42;7.60;99.90
20102;DHT22;10210;52.284;9.892;2022-11-18T05:39:07;7.60;99.90
20102;DHT22;10210;52.284;9.892;2022-11-18T05:41:34;7.60;99.90
20102;DHT22;10210;52.284;9.892;2022-11-18T05:44:18;7.60;99.90
20102;DHT22;10210;52.284;9.892;2022-11-18T05:46:44;7.60;99.90
20102;DHT22;10210;52.284;9.892;2022-11-18T05:49:10;7.50;99.90
20102;DHT22;10210;52.284;9.892;2022-11-18T05:51:35;7.50;99.90
20102;DHT22;10210;52.284;9.892;2022-11-18T05:54:07;7.50;99.90
20102;DHT22;10210;52.284;9.892;2022-11-18T05:56:41;7.50;99.90
20102;DHT22;10210;52.284;9.892;2022-11-18T05:59:09;7.50;99.90
20102;DHT22;10210;52.284;9.892;2022-11-18T06:01:44;7.50;99.90
20102;DHT22;10210;52.284;9.892;2022-11-18T06:04:16;7.40;99.90
20102;DHT22;10210;52.284;9.892;2022-11-18T06:06:48;7.40;99.90
20102;DHT22;10210;52.284;9.892;2022-11-18T06:09:18;7.40;99.90
20102;DHT22;10210;52.284;9.892;2022-11-18T06:11:51;7.40;99.90
20102;DHT22;10210;52.284;9.892;2022-11-18T06:14:28;7.30;99.90
20102;DHT22;10210;52.284;9.892;2022-11-18T06:17:03;7.30;99.90
20102;DHT22;10210;52.284;9.892;2022-11-18T06:19:33;7.30;99.90
20102;DHT22;10210;52.284;9.892;2022-11-18T06:21:59;7.30;99.90
20102;DHT22;10210;52.284;9.892;2022-11-18T06:24:26;7.30;99.90
20102;DHT22;10210;52.284;9.892;2022-11-18T06:26:53;7.30;99.90
20102;DHT22;10210;52.284;9.892;2022-11-18T06:29:19;7.30;99.90
20102;DHT22;10210;52.284;9.892;2022-11-18T06:31:45;7.20;99.90
20102;DHT22;10210;52.284;9.892;2022-11-18T06:34:11;7.30;99.90
20102;DHT22;10210;52.284;9.892;2022-11-18T06:36:37;7.30;99.90
20102;DHT22;10210;52.284;9.892;2022-11-18T06:39:03;7.20;99.90
20102;DHT22;10210;52.284;9.892;2022-11-18T06:41:30;7.20;99.90
20102;DHT22;10210;52.284;9.892;2022-11-18T06:43:57;7.20;99.90
20102;DHT22;10210;52.284;9.892;2022-11-18T06:46:22;7.10;99.90
20102;DHT22;10210;52.284;9.892;2022-11-18T06:49:06;7.10;99.90
20102;DHT22;10210;52.284;9.892;2022-11-18T06:51:32;7.10;99.90
20102;DHT22;10210;52.284;9.892;2022-11-18T06:53:58;7.10;99.90
20102;DHT22;10210;52.284;9.892;2022-11-18T06:56:25;7.00;99.90
20102;DHT22;10210;52.284;9.892;2022-11-18T06:58:55;7.00;99.90
20102;DHT22;10210;52.284;9.892;2022-11-18T07:01:29;7.00;99.90
20102;DHT22;10210;52.284;9.892;2022-11-18T07:03:58;7.00;99.90
20102;DHT22;10210;52.284;9.892;2022-11-18T07:06:26;7.00;99.90
20102;DHT22;10210;52.284;9.892;2022-11-18T07:08:53;7.00;99.90
20102;DHT22;10210;52.284;9.892;2022-11-18T07:11:21;7.00;99.90
20102;DHT22;10210;52.284;9.892;2022-11-18T07:13:49;6.90;99.90
20102;DHT22;10210;52.284;9.892;2022-11-18T07:16:20;7.00;99.90
20102;DHT22;10210;52.284;9.892;2022-11-18T07:18:52;7.00;99.90
20102;DHT22;10210;52.284;9.892;2022-11-18T07:21:24;7.00;99.90
20102;DHT22;10210;52.284;9.892;2022-11-18T07:23:51;7.00;99.90
20102;DHT22;10210;52.284;9.892;2022-11-18T07:26:18;7.00;99.90
20102;DHT22;10210;52.284;9.892;2022-11-18T07:28:44;6.90;99.90
20102;DHT22;10210;52.284;9.892;2022-11-18T07:31:12;6.90;99.90
20102;DHT22;10210;52.284;9.892;2022-11-18T07:33:40;6.90;99.90
20102;DHT22;10210;52.284;9.892;2022-11-18T07:36:09;6.90;99.90
20102;DHT22;10210;52.284;9.892;2022-11-18T07:38:36;7.00;99.90
20102;DHT22;10210;52.284;9.892;2022-11-18T07:41:13;6.90;99.90
20102;DHT22;10210;52.284;9.892;2022-11-18T07:43:41;7.00;99.90
20102;DHT22;10210;52.284;9.892;2022-11-18T07:46:35;7.00;99.90
20102;DHT22;10210;52.284;9.892;2022-11-18T07:49:03;7.00;99.90
20102;DHT22;10210;52.284;9.892;2022-11-18T07:51:33;7.00;99.90
20102;DHT22;10210;52.284;9.892;2022-11-18T07:54:04;6.90;99.90
20102;DHT22;10210;52.284;9.892;2022-11-18T07:56:34;6.90;99.90
20102;DHT22;10210;52.284;9.892;2022-11-18T07:58:59;6.90;99.90
20102;DHT22;10210;52.284;9.892;2022-11-18T08:01:25;6.90;99.90
20102;DHT22;10210;52.284;9.892;2022-11-18T08:03:56;6.90;99.90
20102;DHT22;10210;52.284;9.892;2022-11-18T08:06:23;6.90;99.90
20102;DHT22;10210;52.284;9.892;2022-11-18T08:08:49;6.80;99.90
20102;DHT22;10210;52.284;9.892;2022-11-18T08:11:17;6.80;99.90
20102;DHT22;10210;52.284;9.892;2022-11-18T08:13:44;6.80;99.90
20102;DHT22;10210;52.284;9.892;2022-11-18T08:16:14;6.80;99.90
20102;DHT22;10210;52.284;9.892;2022-11-18T08:18:42;6.80;99.90
20102;DHT22;10210;52.284;9.892;2022-11-18T08:21:08;6.80;99.90
20102;DHT22;10210;52.284;9.892;2022-11-18T08:23:34;6.80;99.90
20102;DHT22;10210;52.284;9.892;2022-11-18T08:26:04;6.80;99.90
20102;DHT22;10210;52.284;9.892;2022-11-18T08:28:31;6.80;99.90
20102;DHT22;10210;52.284;9.892;2022-11-18T08:30:58;6.80;99.90
20102;DHT22;10210;52.284;9.892;2022-11-18T08:33:23;6.70;99.90
20102;DHT22;10210;52.284;9.892;2022-11-18T08:35:49;6.80;99.90
20102;DHT22;10210;52.284;9.892;2022-11-18T08:38:15;6.70;99.90
20102;DHT22;10210;52.284;9.892;2022-11-18T08:40:44;6.70;99.90
20102;DHT22;10210;52.284;9.892;2022-11-18T08:43:12;6.70;99.90
20102;DHT22;10210;52.284;9.892;2022-11-18T08:45:38;6.70;99.90
20102;DHT22;10210;52.284;9.892;2022-11-18T08:48:05;6.70;99.90
20102;DHT22;10210;52.284;9.892;2022-11-18T08:50:31;6.70;99.90
20102;DHT22;10210;52.284;9.892;2022-11-18T08:52:56;6.70;99.90
20102;DHT22;10210;52.284;9.892;2022-11-18T08:55:22;6.70;99.90
20102;DHT22;10210;52.284;9.892;2022-11-18T08:57:48;6.70;99.90
20102;DHT22;10210;52.284;9.892;2022-11-18T09:00:14;6.70;99.90
20102;DHT22;10210;52.284;9.892;2022-11-18T09:02:40;6.70;99.90
20102;DHT22;10210;52.284;9.892;2022-11-18T09:05:06;6.60;99.90
20102;DHT22;10210;52.284;9.892;2022-11-18T09:07:32;6.60;99.90
20102;DHT22;10210;52.284;9.892;2022-11-18T09:09:58;6.60;99.90
20102;DHT22;10210;52.284;9.892;2022-11-18T09:12:23;6.60;99.90
20102;DHT22;10210;52.284;9.892;2022-11-18T09:14:49;6.60;99.90
20102;DHT22;10210;52.284;9.892;2022-11-18T09:17:15;6.60;99.90
20102;DHT22;10210;52.284;9.892;2022-11-18T09:19:41;6.60;99.90
20102;DHT22;10210;52.284;9.892;2022-11-18T09:22:07;6.60;99.90
20102;DHT22;10210;52.284;9.892;2022-11-18T09:24:34;6.50;99.90
20102;DHT22;10210;52.284;9.892;2022-11-18T09:27:04;6.50;99.90
20102;DHT22;10210;52.284;9.892;2022-11-18T09:29:31;6.50;99.90
20102;DHT22;10210;52.284;9.892;2022-11-18T09:31:58;6.40;99.90
20102;DHT22;10210;52.284;9.892;2022-11-18T09:34:26;6.40;99.90
20102;DHT22;10210;52.284;9.892;2022-11-18T09:36:52;6.40;99.90
20102;DHT22;10210;52.284;9.892;2022-11-18T09:39:21;6.40;99.90
20102;DHT22;10210;52.284;9.892;2022-11-18T09:45:20;6.30;99.90
20102;DHT22;10210;52.284;9.892;2022-11-18T09:47:49;6.30;99.90
20102;DHT22;10210;52.284;9.892;2022-11-18T09:50:18;6.30;99.90
20102;DHT22;10210;52.284;9.892;2022-11-18T09:53:17;6.30;99.90
20102;DHT22;10210;52.284;9.892;2022-11-18T09:55:45;6.30;99.90
20102;DHT22;10210;52.284;9.892;2022-11-18T09:58:25;6.20;99.90
20102;DHT22;10210;52.284;9.892;2022-11-18T10:00:54;6.30;99.90
20102;DHT22;10210;52.284;9.892;2022-11-18T10:03:27;6.20;99.90
20102;DHT22;10210;52.284;9.892;2022-11-18T10:06:20;6.20;99.90
20102;DHT22;10210;52.284;9.892;2022-11-18T10:09:29;6.20;99.90
20102;DHT22;10210;52.284;9.892;2022-11-18T10:15:15;6.10;99.90
20102;DHT22;10210;52.284;9.892;2022-11-18T10:21:11;6.10;99.90
20102;DHT22;10210;52.284;9.892;2022-11-18T10:23:44;6.10;99.90
20102;DHT22;10210;52.284;9.892;2022-11-18T10:26:40;6.10;99.90
20102;DHT22;10210;52.284;9.892;2022-11-18T10:29:06;6.10;99.90
20102;DHT22;10210;52.284;9.892;2022-11-18T10:31:59;6.10;99.90
20102;DHT22;10210;52.284;9.892;2022-11-18T10:34:27;6.10;99.90
20102;DHT22;10210;52.284;9.892;2022-11-18T10:37:09;6.10;99.90
20102;DHT22;10210;52.284;9.892;2022-11-18T10:39:51;6.10;99.90
20102;DHT22;10210;52.284;9.892;2022-11-18T10:42:25;6.10;99.90
20102;DHT22;10210;52.284;9.892;2022-11-18T10:44:55;6.10;99.90
20102;DHT22;10210;52.284;9.892;2022-11-18T10:48:19;6.10;99.90
20102;DHT22;10210;52.284;9.892;2022-11-18T10:50:49;6.10;99.90
20102;DHT22;10210;52.284;9.892;2022-11-18T10:53:34;6.10;99.90
20102;DHT22;10210;52.284;9.892;2022-11-18T10:56:07;6.00;99.90
20102;DHT22;10210;52.284;9.892;2022-11-18T10:58:39;6.10;99.90
20102;DHT22;10210;52.284;9.892;2022-11-18T11:01:20;6.00;99.90
20102;DHT22;10210;52.284;9.892;2022-11-18T11:04:02;6.00;99.90
20102;DHT22;10210;52.284;9.892;2022-11-18T11:06:36;6.00;99.90
20102;DHT22;10210;52.284;9.892;2022-11-18T11:11:39;6.00;99.90
20102;DHT22;10210;52.284;9.892;2022-11-18T11:17:16;6.00;99.90
20102;DHT22;10210;52.284;9.892;2022-11-18T11:22:25;6.00;99.90
20102;DHT22;10210;52.284;9.892;2022-11-18T11:24:51;5.90;99.90
20102;DHT22;10210;52.284;9.892;2022-11-18T11:27:23;5.90;99.90
20102;DHT22;10210;52.284;9.892;2022-11-18T11:35:35;5.90;99.90
20102;DHT22;10210;52.284;9.892;2022-11-18T11:41:48;5.80;99.90
20102;DHT22;10210;52.284;9.892;2022-11-18T11:50:49;5.70;99.90
20102;DHT22;10210;52.284;9.892;2022-11-18T12:04:31;5.70;99.90
20102;DHT22;10210;52.284;9.892;2022-11-18T12:07:16;5.60;99.90
20102;DHT22;10210;52.284;9.892;2022-11-18T12:09:49;5.60;99.90
20102;DHT22;10210;52.284;9.892;2022-11-18T12:12:54;5.60;99.90
20102;DHT22;10210;52.284;9.892;2022-11-18T12:18:31;5.50;99.90
20102;DHT22;10210;52.284;9.892;2022-11-18T12:21:02;5.60;99.90
20102;DHT22;10210;52.284;9.892;2022-11-18T12:23:30;5.50;99.90
20102;DHT22;10210;52.284;9.892;2022-11-18T12:26:04;5.50;99.90
20102;DHT22;10210;52.284;9.892;2022-11-18T12:28:41;5.50;99.90
20102;DHT22;10210;52.284;9.892;2022-11-18T12:36:32;5.40;99.90
20102;DHT22;10210;52.284;9.892;2022-11-18T12:42:01;5.40;99.90
20102;DHT22;10210;52.284;9.892;2022-11-18T12:44:51;5.40;99.90
20102;DHT22;10210;52.284;9.892;2022-11-18T12:55:03;5.40;99.90
20102;DHT22;10210;52.284;9.892;2022-11-18T12:57:40;5.40;99.90
20102;DHT22;10210;52.284;9.892;2022-11-18T13:00:35;5.40;99.90
20102;DHT22;10210;52.284;9.892;2022-11-18T13:03:21;5.40;99.90
20102;DHT22;10210;52.284;9.892;2022-11-18T13:05:50;5.40;99.90
20102;DHT22;10210;52.284;9.892;2022-11-18T13:08:27;5.50;99.90
20102;DHT22;10210;52.284;9.892;2022-11-18T13:10:56;5.50;99.90
20102;DHT22;10210;52.284;9.892;2022-11-18T13:13:50;5.50;99.90
20102;DHT22;10210;52.284;9.892;2022-11-18T13:16:37;5.40;99.90
20102;DHT22;10210;52.284;9.892;2022-11-18T13:19:23;5.40;99.90
20102;DHT22;10210;52.284;9.892;2022-11-18T13:21:53;5.40;99.90
20102;DHT22;10210;52.284;9.892;2022-11-18T13:24:48;5.40;99.90
20102;DHT22;10210;52.284;9.892;2022-11-18T13:27:25;5.30;99.90
20102;DHT22;10210;52.284;9.892;2022-11-18T13:30:09;5.30;99.90
20102;DHT22;10210;52.284;9.892;2022-11-18T13:32:42;5.40;99.90
20102;DHT22;10210;52.284;9.892;2022-11-18T13:35:18;5.30;99.90
20102;DHT22;10210;52.284;9.892;2022-11-18T13:37:51;5.30;99.90
20102;DHT22;10210;52.284;9.892;2022-11-18T13:40:28;5.30;99.90
20102;DHT22;10210;52.284;9.892;2022-11-18T13:42:55;5.30;99.90
20102;DHT22;10210;52.284;9.892;2022-11-18T13:45:28;5.30;99.90
20102;DHT22;10210;52.284;9.892;2022-11-18T13:48:05;5.30;99.90
20102;DHT22;10210;52.284;9.892;2022-11-18T13:50:38;5.30;99.90
20102;DHT22;10210;52.284;9.892;2022-11-18T13:53:35;5.30;99.90
20102;DHT22;10210;52.284;9.892;2022-11-18T13:56:21;5.30;99.90
20102;DHT22;10210;52.284;9.892;2022-11-18T13:58:51;5.30;99.90
20102;DHT22;10210;52.284;9.892;2022-11-18T14:01:29;5.30;99.90
20102;DHT22;10210;52.284;9.892;2022-11-18T14:06:31;5.30;99.90
20102;DHT22;10210;52.284;9.892;2022-11-18T14:09:26;5.20;99.90
20102;DHT22;10210;52.284;9.892;2022-11-18T14:12:05;5.20;99.90
20102;DHT22;10210;52.284;9.892;2022-11-18T14:15:14;5.20;99.90
20102;DHT22;10210;52.284;9.892;2022-11-18T14:17:56;5.20;99.90
20102;DHT22;10210;52.284;9.892;2022-11-18T14:20:24;5.10;99.90
20102;DHT22;10210;52.284;9.892;2022-11-18T14:22:57;5.10;99.90
20102;DHT22;10210;52.284;9.892;2022-11-18T14:25:31;5.10;99.90
20102;DHT22;10210;52.284;9.892;2022-11-18T14:31:23;5.00;99.90
20102;DHT22;10210;52.284;9.892;2022-11-18T14:36:30;5.00;99.90
20102;DHT22;10210;52.284;9.892;2022-11-18T14:38:56;5.00;99.90
20102;DHT22;10210;52.284;9.892;2022-11-18T14:41:22;4.90;99.90
20102;DHT22;10210;52.284;9.892;2022-11-18T14:44:06;4.90;99.90
20102;DHT22;10210;52.284;9.892;2022-11-18T14:46:34;5.00;99.90
20102;DHT22;10210;52.284;9.892;2022-11-18T14:49:03;4.90;99.90
20102;DHT22;10210;52.284;9.892;2022-11-18T14:51:30;4.90;99.90
20102;DHT22;10210;52.284;9.892;2022-11-18T14:53:56;4.90;99.90
20102;DHT22;10210;52.284;9.892;2022-11-18T14:56:28;4.90;99.90
20102;DHT22;10210;52.284;9.892;2022-11-18T14:58:56;4.80;99.90
20102;DHT22;10210;52.284;9.892;2022-11-18T15:01:22;4.80;99.90
20102;DHT22;10210;52.284;9.892;2022-11-18T15:03:53;4.80;99.90
20102;DHT22;10210;52.284;9.892;2022-11-18T15:06:20;4.70;99.90
20102;DHT22;10210;52.284;9.892;2022-11-18T15:08:51;4.70;99.90
20102;DHT22;10210;52.284;9.892;2022-11-18T15:11:17;4.70;99.90
20102;DHT22;10210;52.284;9.892;2022-11-18T15:13:43;4.60;99.90
20102;DHT22;10210;52.284;9.892;2022-11-18T15:18:48;4.70;99.90
20102;DHT22;10210;52.284;9.892;2022-11-18T15:21:17;4.70;99.90
20102;DHT22;10210;52.284;9.892;2022-11-18T15:23:43;4.60;99.90
20102;DHT22;10210;52.284;9.892;2022-11-18T15:26:38;4.70;99.90
20102;DHT22;10210;52.284;9.892;2022-11-18T15:29:05;4.70;99.90
20102;DHT22;10210;52.284;9.892;2022-11-18T15:31:31;4.60;99.90
20102;DHT22;10210;52.284;9.892;2022-11-18T15:33:56;4.60;99.90
20102;DHT22;10210;52.284;9.892;2022-11-18T15:36:25;4.60;99.90
20102;DHT22;10210;52.284;9.892;2022-11-18T15:38:53;4.60;99.90
20102;DHT22;10210;52.284;9.892;2022-11-18T15:41:21;4.60;99.90
20102;DHT22;10210;52.284;9.892;2022-11-18T15:43:49;4.50;99.90
20102;DHT22;10210;52.284;9.892;2022-11-18T15:46:16;4.50;99.90
20102;DHT22;10210;52.284;9.892;2022-11-18T15:48:46;4.50;99.90
20102;DHT22;10210;52.284;9.892;2022-11-18T15:51:15;4.40;99.90
20102;DHT22;10210;52.284;9.892;2022-11-18T15:53:41;4.40;99.90
20102;DHT22;10210;52.284;9.892;2022-11-18T15:56:14;4.40;99.90
20102;DHT22;10210;52.284;9.892;2022-11-18T15:58:39;4.50;99.90
20102;DHT22;10210;52.284;9.892;2022-11-18T16:01:05;4.50;99.90
20102;DHT22;10210;52.284;9.892;2022-11-18T16:03:32;4.40;99.90
20102;DHT22;10210;52.284;9.892;2022-11-18T16:05:58;4.50;99.90
20102;DHT22;10210;52.284;9.892;2022-11-18T16:08:24;4.50;99.90
20102;DHT22;10210;52.284;9.892;2022-11-18T16:10:56;4.40;99.90
20102;DHT22;10210;52.284;9.892;2022-11-18T16:13:41;4.40;99.90
20102;DHT22;10210;52.284;9.892;2022-11-18T16:16:19;4.40;99.90
20102;DHT22;10210;52.284;9.892;2022-11-18T16:18:46;4.40;99.90
20102;DHT22;10210;52.284;9.892;2022-11-18T16:21:12;4.40;99.90
20102;DHT22;10210;52.284;9.892;2022-11-18T16:23:37;4.40;99.90
20102;DHT22;10210;52.284;9.892;2022-11-18T16:26:03;4.40;99.90
20102;DHT22;10210;52.284;9.892;2022-11-18T16:28:29;4.40;99.90
20102;DHT22;10210;52.284;9.892;2022-11-18T16:30:55;4.30;99.90
20102;DHT22;10210;52.284;9.892;2022-11-18T16:33:39;4.30;99.90
20102;DHT22;10210;52.284;9.892;2022-11-18T16:36:05;4.20;99.90
20102;DHT22;10210;52.284;9.892;2022-11-18T16:38:31;4.20;99.90
20102;DHT22;10210;52.284;9.892;2022-11-18T16:40:58;4.10;99.90
20102;DHT22;10210;52.284;9.892;2022-11-18T16:43:24;4.00;99.90
20102;DHT22;10210;52.284;9.892;2022-11-18T16:45:52;4.00;99.90
20102;DHT22;10210;52.284;9.892;2022-11-18T16:48:19;4.00;99.90
20102;DHT22;10210;52.284;9.892;2022-11-18T16:51:06;4.00;99.90
20102;DHT22;10210;52.284;9.892;2022-11-18T16:53:51;4.00;99.90
20102;DHT22;10210;52.284;9.892;2022-11-18T16:56:20;4.00;99.90
20102;DHT22;10210;52.284;9.892;2022-11-18T16:58:47;4.00;99.90
20102;DHT22;10210;52.284;9.892;2022-11-18T17:01:14;4.00;99.90
20102;DHT22;10210;52.284;9.892;2022-11-18T17:03:40;4.00;99.90
20102;DHT22;10210;52.284;9.892;2022-11-18T17:06:06;4.00;99.90
20102;DHT22;10210;52.284;9.892;2022-11-18T17:08:33;4.00;99.90
20102;DHT22;10210;52.284;9.892;2022-11-18T17:11:07;4.10;99.90
20102;DHT22;10210;52.284;9.892;2022-11-18T17:13:36;4.10;99.90
20102;DHT22;10210;52.284;9.892;2022-11-18T17:16:07;4.10;99.90
20102;DHT22;10210;52.284;9.892;2022-11-18T17:18:35;4.10;99.90
20102;DHT22;10210;52.284;9.892;2022-11-18T17:21:06;4.10;99.90
20102;DHT22;10210;52.284;9.892;2022-11-18T17:23:38;4.20;99.90
20102;DHT22;10210;52.284;9.892;2022-11-18T17:26:05;4.10;99.90
20102;DHT22;10210;52.284;9.892;2022-11-18T17:28:33;4.10;99.90
20102;DHT22;10210;52.284;9.892;2022-11-18T17:31:20;4.10;99.90
20102;DHT22;10210;52.284;9.892;2022-11-18T17:33:48;4.10;99.90
20102;DHT22;10210;52.284;9.892;2022-11-18T17:36:18;4.10;99.90
20102;DHT22;10210;52.284;9.892;2022-11-18T17:38:47;4.10;99.90
20102;DHT22;10210;52.284;9.892;2022-11-18T17:41:16;4.10;99.90
20102;DHT22;10210;52.284;9.892;2022-11-18T17:44:04;4.10;99.90
20102;DHT22;10210;52.284;9.892;2022-11-18T17:46:31;4.10;99.90
20102;DHT22;10210;52.284;9.892;2022-11-18T17:48:59;4.10;99.90